Time;durP1;ratioP1;P1;durP2;ratioP2;P2;SDS_P1;SDS_P2;PMS_P1;PMS_P2;Temp;Humidity;BMP_temperature;BMP_pressure;BME280_temperature;BME280_humidity;BME280_pressure;Samples;Min_cycle;Max_cycle;Signal;HPM_P1;HPM_P2
2022/01/11 00:01:32;;;;;;;36.55;17.08;;;;;;;1.67;52.29;100421.56;7710111;32;40739;-74
2022/01/11 00:10:07;;;;;;;30.83;16.40;;;;;;;1.27;54.36;100430.19;7709884;32;37450;-74
2022/01/11 00:14:23;;;;;;;29.17;16.48;;;;;;;1.51;53.18;100425.41;7709952;32;38515;-74
2022/01/11 00:18:39;;;;;;;31.23;17.02;;;;;;;1.32;52.96;100424.22;7711263;32;40913;-73
2022/01/11 00:27:16;;;;;;;28.30;14.43;;;;;;;1.61;51.84;100436.63;7713134;32;37331;-73
2022/01/11 00:31:33;;;;;;;28.70;14.98;;;;;;;1.43;52.21;100450.56;7712776;32;39419;-74
2022/01/11 00:35:57;;;;;;;28.95;14.20;;;;;;;1.29;52.36;100452.34;7712937;32;40048;-74
2022/01/11 00:40:14;;;;;;;25.83;14.93;;;;;;;1.44;51.69;100454.09;7712973;32;37851;-74
2022/01/11 00:44:30;;;;;;;29.73;14.82;;;;;;;1.42;51.81;100465.03;7712908;32;37221;-74
2022/01/11 00:48:46;;;;;;;28.85;14.55;;;;;;;1.24;52.39;100478.09;7712767;32;39980;-74
2022/01/11 00:53:03;;;;;;;28.17;13.50;;;;;;;1.32;52.03;100480.66;7712746;32;39780;-73
2022/01/11 00:57:19;;;;;;;29.12;14.68;;;;;;;1.18;52.14;100481.56;7712655;32;38760;-73
2022/01/11 01:01:37;;;;;;;25.20;11.95;;;;;;;0.92;52.56;100488.34;7712788;32;37938;-73
2022/01/11 01:05:54;;;;;;;18.92;10.90;;;;;;;0.98;51.95;100492.94;7712714;32;40359;-74
2022/01/11 01:10:24;;;;;;;23.40;10.88;;;;;;;0.82;51.92;100487.84;7712461;32;40772;-73
2022/01/11 01:14:43;;;;;;;22.73;12.40;;;;;;;0.77;51.84;100491.06;7712431;32;38049;-73
2022/01/11 01:18:59;;;;;;;28.35;12.90;;;;;;;0.85;51.94;100490.16;7712467;32;38028;-73
2022/01/11 01:23:15;;;;;;;23.17;13.20;;;;;;;0.95;52.13;100506.78;7712419;32;39413;-74
2022/01/11 01:27:31;;;;;;;24.50;13.05;;;;;;;0.25;55.10;100509.06;7712376;32;40706;-74
2022/01/11 01:31:48;;;;;;;26.73;13.93;;;;;;;0.44;54.91;100498.75;7711454;32;37630;-73
2022/01/11 01:36:11;;;;;;;26.12;14.90;;;;;;;0.62;54.52;100504.56;7712275;32;37278;-73
2022/01/11 01:40:35;;;;;;;25.00;13.77;;;;;;;0.44;54.08;100496.09;7712359;32;39343;-74
2022/01/11 01:44:51;;;;;;;28.55;14.35;;;;;;;0.45;55.43;100503.09;7712204;32;40897;-73
2022/01/11 01:49:10;;;;;;;29.73;14.93;;;;;;;0.60;53.98;100501.22;7711922;32;37962;-73
2022/01/11 01:53:26;;;;;;;28.10;14.18;;;;;;;0.48;53.49;100500.03;7712129;32;37134;-73
2022/01/11 01:57:42;;;;;;;28.77;14.38;;;;;;;0.50;53.63;100500.69;7698374;32;40093;-73
2022/01/11 02:01:59;;;;;;;26.40;12.95;;;;;;;0.32;54.03;100501.91;7711900;32;40697;-73
2022/01/11 02:06:20;;;;;;;24.48;12.30;;;;;;;0.37;54.63;100498.69;7711820;32;38821;-73
2022/01/11 02:10:37;;;;;;;23.45;12.43;;;;;;;0.52;53.59;100498.66;7711872;32;38040;-73
2022/01/11 02:14:53;;;;;;;22.35;12.05;;;;;;;0.37;53.40;100502.19;7711733;32;40484;-73
2022/01/11 02:19:10;;;;;;;25.02;13.40;;;;;;;0.15;55.02;100503.12;7711728;32;40659;-74
2022/01/11 02:23:28;;;;;;;24.60;12.00;;;;;;;0.48;53.97;100502.72;7698024;32;38131;-74
2022/01/11 02:27:44;;;;;;;23.80;12.27;;;;;;;0.46;53.10;100500.22;7711646;32;36998;-74
2022/01/11 02:32:00;;;;;;;23.40;11.70;;;;;;;0.27;53.39;100504.31;7711421;32;39149;-73
2022/01/11 02:36:24;;;;;;;22.15;12.40;;;;;;;0.56;53.08;100507.97;7711483;32;40759;-73
2022/01/11 02:40:40;;;;;;;22.75;12.50;;;;;;;0.49;53.02;100520.50;7710684;32;37867;-73
2022/01/11 02:44:56;;;;;;;23.40;13.02;;;;;;;0.24;53.29;100534.19;7711413;32;37250;-73
2022/01/11 02:49:12;;;;;;;23.58;12.88;;;;;;;0.03;53.99;100536.81;7711493;32;39389;-73
2022/01/11 02:53:29;;;;;;;21.95;11.55;;;;;;;0.17;53.49;100534.12;7711338;32;40846;-73
2022/01/11 02:57:45;;;;;;;24.48;12.07;;;;;;;-0.02;53.25;100532.84;7711198;32;38779;-74
2022/01/11 03:02:01;;;;;;;23.25;11.82;;;;;;;-0.24;53.59;100531.87;7711249;32;37377;-74
2022/01/11 03:06:18;;;;;;;24.80;12.27;;;;;;;-0.32;54.25;100536.50;7711265;32;39208;-73
2022/01/11 03:10:34;;;;;;;20.62;11.05;;;;;;;-1.17;58.62;100557.06;7711067;32;39814;-73
2022/01/11 03:14:50;;;;;;;20.88;12.57;;;;;;;-0.86;59.45;100565.06;7711043;32;37925;-73
2022/01/11 03:19:06;;;;;;;27.98;14.48;;;;;;;-0.77;59.77;100574.69;7711071;32;37222;-73
2022/01/11 03:23:23;;;;;;;36.95;17.25;;;;;;;-0.53;57.34;100575.50;7710997;32;40220;-72
2022/01/11 03:27:40;;;;;;;20.20;10.95;;;;;;;-0.79;57.00;100579.37;7710861;32;40926;-73
2022/01/11 03:31:56;;;;;;;20.83;11.23;;;;;;;-0.86;56.39;100596.31;7710555;32;37933;-73
2022/01/11 03:36:13;;;;;;;20.70;11.85;;;;;;;-0.91;56.14;100588.84;7710683;32;37295;-73
2022/01/11 03:40:29;;;;;;;23.20;12.95;;;;;;;-0.88;56.12;100583.13;7710576;32;39621;-73
2022/01/11 03:44:45;;;;;;;34.20;16.85;;;;;;;-0.62;55.47;100580.09;7710524;32;40800;-74
2022/01/11 03:49:01;;;;;;;30.02;16.92;;;;;;;-0.78;55.85;100582.87;7710409;32;37930;-73
2022/01/11 03:53:19;;;;;;;33.33;16.25;;;;;;;-0.69;55.86;100587.19;7709917;32;37196;-72
2022/01/11 03:57:35;;;;;;;29.58;14.32;;;;;;;-0.60;55.67;100587.97;7710327;32;39451;-73
2022/01/11 04:01:51;;;;;;;26.52;13.48;;;;;;;-0.56;55.41;100586.59;7710101;32;40819;-73
2022/01/11 04:06:08;;;;;;;28.12;14.70;;;;;;;-0.70;55.62;100590.03;7710039;32;38676;-73
2022/01/11 04:10:24;;;;;;;25.85;13.98;;;;;;;-0.64;55.28;100600.03;7709894;32;36963;-73
2022/01/11 04:14:40;;;;;;;28.98;15.35;;;;;;;-0.40;54.42;100607.91;7709872;32;39278;-73
2022/01/11 04:18:56;;;;;;;24.87;13.65;;;;;;;-0.55;54.82;100612.38;7709781;32;39770;-74
2022/01/11 04:23:13;;;;;;;24.67;13.95;;;;;;;-0.57;54.16;100617.03;7709576;32;37686;-73
2022/01/11 04:27:29;;;;;;;22.77;12.07;;;;;;;-0.84;54.18;100632.63;7709563;32;37481;-73
2022/01/11 04:31:45;;;;;;;22.83;12.60;;;;;;;-0.65;53.73;100635.88;7709327;32;39462;-73
2022/01/11 04:36:02;;;;;;;24.17;13.65;;;;;;;-1.06;54.93;100633.44;7709356;32;39620;-73
2022/01/11 04:40:18;;;;;;;24.10;11.93;;;;;;;-1.20;55.33;100643.84;7709196;32;37946;-73
2022/01/11 04:44:34;;;;;;;23.17;13.50;;;;;;;-1.04;55.36;100642.12;7695454;32;37144;-73
2022/01/11 04:48:50;;;;;;;22.48;12.65;;;;;;;-0.98;55.54;100642.25;7709071;32;40105;-73
2022/01/11 04:53:06;;;;;;;24.58;11.98;;;;;;;-1.18;55.71;100651.72;7708898;32;40748;-73
2022/01/11 04:57:22;;;;;;;23.27;12.85;;;;;;;-0.74;54.31;100653.84;7708772;32;38716;-73
2022/01/11 05:01:40;;;;;;;37.55;17.42;;;;;;;-0.71;54.18;100663.34;7708779;32;37220;-73
2022/01/11 05:05:57;;;;;;;28.02;13.45;;;;;;;-0.75;53.96;100668.22;7710624;32;38408;-73
2022/01/11 05:10:13;;;;;;;26.00;13.35;;;;;;;-0.83;54.11;100673.63;7712435;32;40852;-73
2022/01/11 05:14:29;;;;;;;23.17;11.45;;;;;;;-1.26;54.96;100687.38;7712403;32;37964;-73
2022/01/11 05:18:45;;;;;;;23.15;11.27;;;;;;;-1.00;54.44;100686.25;7712536;32;37235;-73
2022/01/11 05:23:02;;;;;;;25.12;13.75;;;;;;;-0.83;53.84;100693.22;7712550;32;39272;-73
2022/01/11 05:27:18;;;;;;;23.25;13.05;;;;;;;-1.01;54.32;100695.31;7712352;32;39724;-73
2022/01/11 05:31:35;;;;;;;22.30;12.20;;;;;;;-1.18;54.73;100700.69;7712018;32;37738;-73
2022/01/11 05:35:51;;;;;;;26.62;13.65;;;;;;;-1.11;54.58;100697.34;7698677;32;37423;-73
2022/01/11 05:40:09;;;;;;;23.77;12.68;;;;;;;-1.15;54.56;100708.37;7712191;32;39297;-73
2022/01/11 05:44:25;;;;;;;24.42;11.60;;;;;;;-1.47;55.55;100713.84;7712137;32;40240;-72
2022/01/11 05:48:44;;;;;;;23.02;12.40;;;;;;;-1.32;56.04;100714.81;7712011;32;38003;-73
2022/01/11 05:53:00;;;;;;;22.55;12.00;;;;;;;-1.23;54.81;100715.63;7712123;32;38146;-73
2022/01/11 05:57:16;;;;;;;23.05;13.02;;;;;;;-1.63;55.72;100723.56;7712123;32;39451;-72
2022/01/11 06:01:34;;;;;;;24.98;12.80;;;;;;;-1.47;56.10;100732.56;7711926;32;39945;-72
2022/01/11 06:05:50;;;;;;;20.85;12.50;;;;;;;-1.49;56.61;100737.25;7711844;32;37923;-73
2022/01/11 06:10:07;;;;;;;22.80;12.40;;;;;;;-1.46;56.14;100747.62;7711901;32;37989;-73
2022/01/11 06:14:24;;;;;;;24.63;13.10;;;;;;;-1.38;55.38;100760.94;7711817;32;40105;-73
2022/01/11 06:18:40;;;;;;;24.83;13.32;;;;;;;-1.48;55.90;100768.31;7711597;32;39723;-73
2022/01/11 06:22:56;;;;;;;18.10;10.40;;;;;;;-1.49;55.41;100767.50;7711750;32;38576;-72
2022/01/11 06:27:12;;;;;;;23.95;12.35;;;;;;;-1.48;54.93;100777.19;7711783;32;37162;-72
2022/01/11 06:31:29;;;;;;;27.10;14.73;;;;;;;-1.68;55.26;100778.53;7711305;32;40076;-72
2022/01/11 06:35:46;;;;;;;24.40;13.30;;;;;;;-1.86;57.12;100790.25;7711569;32;39724;-73
2022/01/11 06:40:04;;;;;;;22.65;12.13;;;;;;;-1.80;57.60;100799.44;7711561;32;38517;-73
2022/01/11 06:44:20;;;;;;;21.05;11.00;;;;;;;-1.69;57.38;100804.47;7711584;32;37049;-73
2022/01/11 06:48:36;;;;;;;18.37;10.80;;;;;;;-1.86;56.26;100810.78;7711702;32;39100;-73
2022/01/11 06:52:52;;;;;;;15.90;10.07;;;;;;;-1.90;55.84;100816.47;7711352;32;39758;-73
2022/01/11 06:57:09;;;;;;;18.60;10.60;;;;;;;-1.66;55.61;100825.50;7711217;32;38022;-72
2022/01/11 07:01:25;;;;;;;15.93;10.32;;;;;;;-1.86;55.17;100818.78;7711273;32;38182;-73
2022/01/11 07:05:43;;;;;;;23.87;10.40;;;;;;;-1.78;55.03;100829.50;7711273;32;39194;-73
2022/01/11 07:09:59;;;;;;;21.00;10.32;;;;;;;-1.70;54.82;100842.88;7711177;32;40953;-72
2022/01/11 07:14:15;;;;;;;17.73;10.02;;;;;;;-1.91;55.07;100836.16;7710832;32;38104;-73
2022/01/11 07:18:34;;;;;;;17.70;10.25;;;;;;;-1.79;54.98;100843.87;7711129;32;37992;-72
2022/01/11 07:22:50;;;;;;;18.60;11.38;;;;;;;-1.62;54.53;100848.25;7711012;32;40148;-73
2022/01/11 07:27:06;;;;;;;21.65;10.63;;;;;;;-1.68;55.20;100854.25;7710108;32;40011;-72
2022/01/11 07:31:23;;;;;;;20.67;11.30;;;;;;;-0.83;65.03;100861.03;7710587;32;38776;-73
2022/01/11 07:35:39;;;;;;;25.00;11.50;;;;;;;-0.83;59.24;100869.94;7710734;32;37944;-72
2022/01/11 07:39:55;;;;;;;24.70;12.77;;;;;;;-0.97;56.63;100862.56;7710754;32;39179;-73
2022/01/11 07:44:12;;;;;;;29.75;14.07;;;;;;;-1.04;55.78;100873.12;7710595;32;39922;-72
2022/01/11 07:48:28;;;;;;;22.65;12.95;;;;;;;-0.81;56.15;100878.63;7710452;32;37702;-73
2022/01/11 07:52:44;;;;;;;25.80;13.55;;;;;;;-0.97;56.80;100892.03;7696559;32;37008;-73
2022/01/11 07:57:00;;;;;;;28.30;14.40;;;;;;;-0.63;56.23;100886.44;7710239;32;39193;-72
2022/01/11 08:01:16;;;;;;;29.00;14.60;;;;;;;-0.72;56.64;100889.31;7710321;32;39691;-73
2022/01/11 08:05:33;;;;;;;20.98;12.82;;;;;;;-0.56;56.84;100889.28;7709930;32;38786;-72
2022/01/11 08:09:49;;;;;;;21.70;12.45;;;;;;;-0.48;55.37;100893.78;7710115;32;38149;-72
2022/01/11 08:14:05;;;;;;;23.52;13.15;;;;;;;-0.34;54.79;100898.41;7709882;32;39089;-73
2022/01/11 08:18:21;;;;;;;25.52;13.43;;;;;;;-0.11;54.90;100898.47;7709859;32;39752;-73
2022/01/11 08:22:37;;;;;;;26.62;14.95;;;;;;;0.04;54.27;100916.53;7709698;32;38671;-73
2022/01/11 08:26:54;;;;;;;27.42;15.55;;;;;;;0.09;55.52;100911.47;7709637;32;37031;-73
2022/01/11 08:31:11;;;;;;;23.55;13.57;;;;;;;0.23;55.57;100910.72;7709374;32;39241;-73
2022/01/11 08:35:30;;;;;;;23.00;13.05;;;;;;;0.86;54.48;100924.03;7709389;32;40768;-73
2022/01/11 08:39:52;;;;;;;29.42;14.25;;;;;;;1.24;53.35;100915.97;7709962;32;37732;-74
2022/01/11 08:44:11;;;;;;;25.55;13.80;;;;;;;1.16;53.51;100918.75;7712801;32;38248;-74
2022/01/11 08:48:28;;;;;;;27.83;14.30;;;;;;;1.22;53.27;100916.16;7712848;32;39928;-73
2022/01/11 08:52:45;;;;;;;25.60;13.75;;;;;;;1.54;53.07;100926.78;7712685;32;40658;-74
2022/01/11 08:57:01;;;;;;;23.83;13.65;;;;;;;1.48;53.23;100929.19;7712563;32;37922;-73
2022/01/11 09:01:17;;;;;;;32.35;17.37;;;;;;;0.82;54.56;100918.19;7712560;32;37271;-73
2022/01/11 09:05:34;;;;;;;33.95;18.37;;;;;;;1.13;54.03;100934.19;7712610;32;39299;-74
2022/01/11 09:09:51;;;;;;;34.80;19.70;;;;;;;1.40;53.96;100931.94;7712421;32;40044;-73
2022/01/11 09:14:07;;;;;;;36.17;19.98;;;;;;;1.85;52.83;100935.47;7712276;32;37941;-75
2022/01/11 09:18:23;;;;;;;34.65;17.92;;;;;;;1.82;52.82;100941.22;7712331;32;38520;-73
2022/01/11 09:22:40;;;;;;;36.90;18.98;;;;;;;2.00;52.66;100937.31;7712219;32;39347;-73
2022/01/11 09:26:58;;;;;;;36.22;18.75;;;;;;;2.16;52.17;100929.03;7712320;32;40012;-74
2022/01/11 09:31:15;;;;;;;31.65;18.75;;;;;;;2.78;51.28;100918.72;7712042;32;38826;-74
2022/01/11 09:35:31;;;;;;;30.77;17.05;;;;;;;2.98;49.28;100919.75;7710554;32;38075;-73
2022/01/11 09:39:48;;;;;;;30.58;16.87;;;;;;;2.76;49.91;100926.16;7711656;32;39214;-74
2022/01/11 09:44:05;;;;;;;29.35;16.05;;;;;;;2.24;51.41;100920.88;7711776;32;40758;-74
2022/01/11 09:48:24;;;;;;;34.78;18.00;;;;;;;3.17;49.58;100922.78;7711689;32;38049;-73
2022/01/11 09:52:40;;;;;;;31.48;16.33;;;;;;;3.69;48.32;100910.72;7711205;32;37383;-73
2022/01/11 09:56:56;;;;;;;36.50;17.20;;;;;;;4.14;45.72;100908.41;7711693;32;39411;-73
2022/01/11 10:01:12;;;;;;;33.17;17.27;;;;;;;4.65;45.43;100908.97;7711366;32;40809;-72
2022/01/11 10:05:29;;;;;;;31.62;16.58;;;;;;;4.13;44.87;100917.53;7711261;32;38218;-74
2022/01/11 10:09:48;;;;;;;26.95;15.27;;;;;;;4.73;43.92;100906.06;7711495;32;38290;-74
2022/01/11 10:14:29;;;;;;;31.83;16.62;;;;;;;5.69;43.41;100912.03;7711537;32;39471;-74
2022/01/11 10:18:45;;;;;;;26.58;13.77;;;;;;;5.89;40.74;100914.69;7706255;32;39666;-74
2022/01/11 10:23:05;;;;;;;24.00;13.48;;;;;;;5.95;39.46;100900.28;7710937;32;37766;-74
2022/01/11 10:27:32;;;;;;;22.00;11.65;;;;;;;6.54;38.32;100892.97;7711411;32;37009;-74
2022/01/11 10:31:48;;;;;;;26.35;12.60;;;;;;;6.86;37.18;100892.94;7711041;32;39408;-74
2022/01/11 10:36:04;;;;;;;24.00;12.77;;;;;;;5.99;37.32;100909.69;7710880;32;39857;-74
2022/01/11 10:40:32;;;;;;;27.23;14.25;;;;;;;6.55;35.73;100897.31;7711028;32;37998;-74
2022/01/11 10:45:16;;;;;;;35.70;16.17;;;;;;;6.51;36.33;100896.09;7711207;32;37166;-73
2022/01/11 10:49:35;;;;;;;29.83;15.48;;;;;;;5.97;37.84;100907.19;7697804;32;169712;-74
2022/01/11 10:53:51;;;;;;;33.38;16.70;;;;;;;6.17;37.96;100901.72;7711406;32;40790;-74
2022/01/11 10:58:10;;;;;;;32.42;14.82;;;;;;;6.00;38.24;100904.06;7711277;32;38694;-74
2022/01/11 11:02:27;;;;;;;24.63;12.80;;;;;;;5.83;38.04;100910.97;7710154;32;37365;-74
2022/01/11 11:06:43;;;;;;;24.60;13.30;;;;;;;6.51;36.13;100887.97;7711138;32;39300;-74
2022/01/11 11:11:01;;;;;;;30.10;12.52;;;;;;;6.79;34.99;100894.87;7697337;32;40704;-73
2022/01/11 11:15:26;;;;;;;26.65;13.55;;;;;;;7.17;35.04;100899.38;7711141;32;37104;-74
2022/01/11 11:19:59;;;;;;;22.10;11.57;;;;;;;7.09;35.28;100903.22;7700072;32;35767;-75
2022/01/11 11:24:16;;;;;;;26.30;12.68;;;;;;;6.35;35.48;100898.28;7711107;32;40073;-74
2022/01/11 11:28:32;;;;;;;30.80;13.35;;;;;;;6.23;35.84;100894.59;7710867;32;40453;-75
2022/01/11 11:32:51;;;;;;;28.38;13.18;;;;;;;6.58;34.09;100892.28;7710140;32;37920;-75
2022/01/11 11:37:08;;;;;;;22.55;12.13;;;;;;;7.02;33.04;100889.69;7697399;32;37399;-74
2022/01/11 11:41:26;;;;;;;26.33;12.68;;;;;;;7.39;32.42;100891.66;7697171;32;39920;-75
2022/01/11 11:45:43;;;;;;;25.75;13.05;;;;;;;7.28;33.48;100890.53;7697135;32;38883;-74
2022/01/11 11:50:06;;;;;;;26.00;12.75;;;;;;;7.11;33.07;100892.97;7710472;32;37865;-74
2022/01/11 11:54:22;;;;;;;21.58;11.73;;;;;;;6.13;34.60;100895.06;7710461;32;37851;-74
2022/01/11 11:58:55;;;;;;;20.70;10.45;;;;;;;6.06;34.32;100904.25;7710477;32;39955;-75
2022/01/11 12:03:22;;;;;;;18.95;10.52;;;;;;;6.25;33.06;100894.37;7710211;32;40869;-75
2022/01/11 12:07:42;;;;;;;19.50;9.75;;;;;;;6.56;33.13;100899.00;7709990;32;38067;-75
2022/01/11 12:11:59;;;;;;;19.60;9.98;;;;;;;7.19;31.33;100894.56;7710034;32;37077;-75
2022/01/11 12:16:24;;;;;;;19.37;10.10;;;;;;;8.31;30.31;100886.19;7712406;32;40055;-75
2022/01/11 12:20:51;;;;;;;21.12;9.85;;;;;;;7.98;28.65;100901.03;7712997;32;40049;-75
2022/01/11 12:25:26;;;;;;;17.27;9.65;;;;;;;7.03;29.42;100888.63;7713010;32;38971;-74
2022/01/11 12:29:53;;;;;;;16.83;9.60;;;;;;;8.49;28.26;100884.53;7713120;32;37725;-76
2022/01/11 12:34:10;;;;;;;27.17;9.95;;;;;;;8.47;27.89;100876.63;7712831;32;39360;-76
2022/01/11 12:38:29;;;;;;;22.35;10.55;;;;;;;9.71;27.25;100875.75;7712961;32;39989;-76
2022/01/11 12:42:54;;;;;;;20.05;10.88;;;;;;;10.32;26.79;100872.66;7712800;32;37939;-76
2022/01/11 12:47:11;;;;;;;23.38;11.85;;;;;;;10.62;25.95;100871.56;7712817;32;37913;-76
2022/01/11 12:51:29;;;;;;;19.73;9.73;;;;;;;10.71;25.19;100875.56;7712696;32;40064;-75
2022/01/11 12:55:45;;;;;;;24.35;10.68;;;;;;;10.39;25.11;100880.69;7712653;32;39953;-75
2022/01/11 13:00:14;;;;;;;20.35;11.27;;;;;;;10.36;26.21;100881.97;7712451;32;38582;-75
2022/01/11 13:04:48;;;;;;;23.25;11.52;;;;;;;9.94;28.07;100893.94;7712581;32;37944;-74
2022/01/11 13:09:08;;;;;;;19.73;9.65;;;;;;;10.07;27.85;100895.59;7712628;32;39385;-74
2022/01/11 13:13:26;;;;;;;21.48;10.73;;;;;;;9.30;26.95;100899.34;7712382;32;39897;-75
2022/01/11 13:17:58;;;;;;;20.05;10.50;;;;;;;8.75;29.85;100894.19;7712355;32;37802;-75
2022/01/11 13:22:37;;;;;;;19.52;10.70;;;;;;;7.76;30.86;100892.53;7712351;32;36624;-75
2022/01/11 13:26:54;;;;;;;24.58;10.18;;;;;;;8.65;28.89;100901.00;7711733;32;39342;-74
2022/01/11 13:31:13;;;;;;;19.20;8.98;;;;;;;8.38;29.30;100905.13;7711999;32;39722;-75
2022/01/11 13:35:29;;;;;;;17.85;9.63;;;;;;;9.01;28.70;100893.75;7712107;32;38730;-75
2022/01/11 13:39:46;;;;;;;21.20;9.40;;;;;;;8.95;28.16;100886.53;7698336;32;37895;-75
2022/01/11 13:44:06;;;;;;;16.45;8.88;;;;;;;9.29;27.02;100886.78;7712090;32;39271;-75
2022/01/11 13:48:22;;;;;;;17.15;9.48;;;;;;;9.74;26.82;100898.94;7712291;32;40555;-75
2022/01/11 13:52:38;;;;;;;18.60;8.68;;;;;;;12.83;22.55;100869.84;7711848;32;37900;-75
2022/01/11 13:56:55;;;;;;;17.80;8.40;;;;;;;15.25;19.45;100868.88;7711839;32;37863;-76
2022/01/11 14:01:16;;;;;;;16.98;8.32;;;;;;;17.59;16.61;100858.66;7711961;32;40152;-75
2022/01/11 14:05:33;;;;;;;14.07;7.97;;;;;;;19.57;14.24;100859.03;7711733;32;38874;-75
2022/01/11 14:10:05;;;;;;;13.30;7.70;;;;;;;21.36;12.49;100856.88;7697957;32;38570;-75
2022/01/11 14:14:24;;;;;;;16.55;8.20;;;;;;;21.72;11.78;100875.34;7711672;32;37270;-73
2022/01/11 14:19:02;;;;;;;13.85;7.30;;;;;;;22.88;11.37;100872.09;7711761;32;39336;-73
2022/01/11 14:23:18;;;;;;;13.02;7.15;;;;;;;21.59;11.39;100874.31;7711530;32;39820;-76
2022/01/11 14:27:36;;;;;;;14.93;7.53;;;;;;;21.75;11.12;100875.53;7711371;32;37827;-72
2022/01/11 14:32:07;;;;;;;14.13;7.10;;;;;;;23.06;10.35;100872.94;7711290;32;37327;-72
2022/01/11 14:36:29;;;;;;;9.95;5.97;;;;;;;23.84;10.06;100876.63;7711258;32;39363;-72
2022/01/11 14:40:45;;;;;;;11.18;5.43;;;;;;;23.87;9.40;100878.72;7711629;32;40719;-73
2022/01/11 14:45:14;;;;;;;12.70;5.65;;;;;;;23.22;9.95;100884.34;7711489;32;37869;-73
2022/01/11 14:49:34;;;;;;;7.93;4.62;;;;;;;22.75;10.68;100887.00;7711662;32;36854;-73
2022/01/11 14:53:57;;;;;;;8.07;4.47;;;;;;;21.41;11.24;100892.00;7711468;32;40268;-73
2022/01/11 14:58:14;;;;;;;9.90;4.50;;;;;;;20.17;11.87;100897.66;7711402;32;39985;-72
2022/01/11 15:02:32;;;;;;;8.68;4.57;;;;;;;18.67;13.30;100912.47;7711379;32;38853;-75
2022/01/11 15:07:00;;;;;;;11.48;5.10;;;;;;;16.26;15.67;100912.03;7711272;32;37796;-74
2022/01/11 15:11:22;;;;;;;9.38;5.00;;;;;;;14.16;18.07;100932.91;7711275;32;40120;-75
2022/01/11 15:15:39;;;;;;;8.63;4.40;;;;;;;12.44;20.59;100940.31;7711129;32;39991;-74
2022/01/11 15:19:56;;;;;;;8.50;4.30;;;;;;;11.36;22.19;100941.53;7711039;32;38157;-74
2022/01/11 15:24:13;;;;;;;8.27;4.55;;;;;;;10.43;23.83;100953.53;7711103;32;37883;-74
2022/01/11 15:28:29;;;;;;;8.75;4.55;;;;;;;9.55;25.03;100952.72;7697293;32;39541;-74
2022/01/11 15:32:45;;;;;;;14.38;5.30;;;;;;;8.48;26.99;100953.53;7710684;32;39907;-73
2022/01/11 15:37:01;;;;;;;10.32;5.50;;;;;;;7.76;27.96;100956.84;7710826;32;38609;-74
2022/01/11 15:41:21;;;;;;;12.15;6.68;;;;;;;7.28;28.77;100966.47;7710811;32;37854;-73
2022/01/11 15:45:37;;;;;;;17.42;8.63;;;;;;;6.96;29.24;100970.03;7697523;32;40042;-73
2022/01/11 15:49:53;;;;;;;23.02;9.95;;;;;;;6.80;28.82;100980.56;7709975;32;41001;-73
2022/01/11 15:54:11;;;;;;;29.75;10.85;;;;;;;6.24;30.32;100982.91;7710302;32;38586;-74
2022/01/11 15:58:32;;;;;;;17.50;9.52;;;;;;;6.10;31.12;100981.28;7710502;32;37579;-74
2022/01/11 16:02:48;;;;;;;20.48;9.10;;;;;;;5.84;31.87;100985.69;7710473;32;39357;-73
2022/01/11 16:07:04;;;;;;;24.73;10.45;;;;;;;5.45;32.63;100998.25;7710239;32;40945;-73
2022/01/11 16:11:21;;;;;;;19.98;9.07;;;;;;;5.26;32.88;100997.19;7710034;32;37917;-73
2022/01/11 16:15:37;;;;;;;22.13;10.38;;;;;;;4.95;34.27;101006.72;7709969;32;37094;-73
2022/01/11 16:19:54;;;;;;;23.65;11.60;;;;;;;4.91;34.61;101015.44;7709977;32;39241;-74
2022/01/11 16:24:10;;;;;;;23.48;11.93;;;;;;;4.63;35.75;101011.00;7709792;32;40397;-73
2022/01/11 16:28:26;;;;;;;24.08;12.48;;;;;;;4.29;37.19;101010.00;7709654;32;38582;-74
2022/01/11 16:32:42;;;;;;;19.52;10.25;;;;;;;3.93;37.19;101016.44;7709404;32;37744;-73
2022/01/11 16:36:58;;;;;;;23.85;11.77;;;;;;;4.19;36.47;101018.50;7709260;32;39865;-73
2022/01/11 16:45:31;;;;;;;21.12;10.68;;;;;;;3.86;37.11;101024.50;7705526;32;38007;-73
2022/01/11 16:49:48;;;;;;;22.75;9.63;;;;;;;3.73;37.66;101019.84;7708488;32;37298;-74
2022/01/11 16:54:05;;;;;;;21.08;9.73;;;;;;;3.38;38.55;101038.66;7708220;32;40619;-74
2022/01/11 16:58:22;;;;;;;16.23;8.68;;;;;;;3.37;38.26;101039.69;7708364;32;40005;-74
2022/01/11 17:02:38;;;;;;;17.87;7.87;;;;;;;3.22;38.59;101048.88;7711021;32;37804;-74
2022/01/11 17:06:55;;;;;;;21.10;11.10;;;;;;;3.32;38.10;101050.22;7698127;32;37873;-73
2022/01/11 17:11:11;;;;;;;12.95;6.53;;;;;;;3.30;39.44;101046.06;7712219;32;39372;-74
2022/01/11 17:15:27;;;;;;;12.05;6.18;;;;;;;3.41;38.25;101042.00;7711908;32;39740;-73
2022/01/11 17:19:44;;;;;;;21.17;9.77;;;;;;;3.19;37.94;101055.47;7712028;32;38456;-73
2022/01/11 17:24:00;;;;;;;19.83;10.68;;;;;;;3.00;38.69;101065.88;7698264;32;38077;-74
2022/01/11 17:28:16;;;;;;;22.48;11.75;;;;;;;2.60;41.35;101078.00;7712162;32;39403;-74
2022/01/11 17:32:33;;;;;;;20.45;10.35;;;;;;;2.81;41.16;101074.53;7712032;32;40946;-73
2022/01/11 17:36:49;;;;;;;22.25;13.10;;;;;;;2.66;41.66;101088.03;7711455;32;37925;-73
2022/01/11 17:41:05;;;;;;;25.75;13.13;;;;;;;2.80;41.89;101094.44;7711991;32;37265;-73
2022/01/11 17:45:22;;;;;;;25.42;13.68;;;;;;;2.70;42.37;101100.09;7711639;32;39351;-73
2022/01/11 17:49:38;;;;;;;22.87;11.80;;;;;;;2.66;44.03;101104.19;7711809;32;39921;-74
2022/01/11 17:53:54;;;;;;;21.10;11.77;;;;;;;2.26;44.58;101106.34;7711777;32;38767;-72
2022/01/11 17:58:11;;;;;;;11.60;7.03;;;;;;;2.02;44.51;101118.22;7711366;32;38029;-74
2022/01/11 18:02:28;;;;;;;13.07;7.57;;;;;;;2.17;41.75;101115.50;7711827;32;39076;-74
2022/01/11 18:06:44;;;;;;;23.60;12.00;;;;;;;2.23;39.70;101125.56;7711367;32;40035;-73
2022/01/11 18:11:00;;;;;;;20.23;9.70;;;;;;;2.15;43.60;101134.53;7711191;32;37788;-73
2022/01/11 18:15:16;;;;;;;12.98;7.30;;;;;;;1.80;42.47;101144.12;7711739;32;37184;-74
2022/01/11 18:19:34;;;;;;;13.65;6.20;;;;;;;1.98;39.66;101138.41;7711222;32;39404;-73
2022/01/11 18:23:50;;;;;;;12.27;6.25;;;;;;;2.09;38.64;101134.41;7711525;32;39843;-74
2022/01/11 18:28:06;;;;;;;8.68;5.50;;;;;;;2.16;37.57;101152.34;7711062;32;37786;-73
2022/01/11 18:32:22;;;;;;;14.90;8.45;;;;;;;2.16;37.46;101146.97;7711433;32;37079;-73
2022/01/11 18:36:38;;;;;;;15.88;9.10;;;;;;;2.26;38.65;101154.78;7711187;32;39405;-74
2022/01/11 18:40:55;;;;;;;14.70;8.07;;;;;;;2.50;38.11;101159.09;7711331;32;40819;-74
2022/01/11 18:45:11;;;;;;;13.70;8.45;;;;;;;2.48;38.33;101160.28;7711096;32;38583;-73
2022/01/11 18:49:27;;;;;;;13.07;7.45;;;;;;;2.42;39.05;101161.84;7710676;32;37032;-73
2022/01/11 18:53:43;;;;;;;13.23;6.85;;;;;;;2.53;38.39;101168.63;7711097;32;39311;-74
2022/01/11 18:57:59;;;;;;;12.07;6.53;;;;;;;2.42;38.29;101161.84;7710624;32;41300;-74
2022/01/11 19:02:15;;;;;;;11.10;6.18;;;;;;;2.35;37.86;101167.12;7710682;32;38057;-73
2022/01/11 19:06:33;;;;;;;13.10;6.78;;;;;;;2.45;37.78;101180.34;7711362;32;37636;-73
2022/01/11 19:10:51;;;;;;;11.93;6.03;;;;;;;2.19;38.23;101178.03;7697028;32;40724;-73
2022/01/11 19:15:08;;;;;;;12.35;6.30;;;;;;;2.32;38.25;101178.25;7710782;32;40113;-75
2022/01/11 19:19:26;;;;;;;10.40;6.03;;;;;;;1.98;39.04;101193.03;7709891;32;38655;-73
2022/01/11 19:23:42;;;;;;;21.20;11.07;;;;;;;1.87;39.19;101201.53;7709867;32;36903;-74
2022/01/11 19:28:01;;;;;;;20.62;10.00;;;;;;;1.75;38.67;101202.97;7709831;32;39834;-73
2022/01/11 19:32:21;;;;;;;16.40;7.90;;;;;;;2.04;38.89;101207.63;7709734;32;39892;-74
2022/01/11 19:36:43;;;;;;;13.60;7.30;;;;;;;1.96;39.56;101211.19;7710242;32;38012;-74
2022/01/11 19:41:00;;;;;;;18.90;7.87;;;;;;;2.01;39.33;101218.75;7695712;32;37084;-74
2022/01/11 19:45:18;;;;;;;13.75;7.30;;;;;;;1.72;40.81;101224.84;7709946;32;41216;-73
2022/01/11 19:49:37;;;;;;;15.32;9.35;;;;;;;1.88;40.83;101225.56;7709407;32;40092;-74
2022/01/11 19:53:55;;;;;;;17.85;9.57;;;;;;;1.80;41.19;101232.84;7709242;32;37834;-73
2022/01/11 19:58:15;;;;;;;17.15;9.80;;;;;;;1.43;42.53;101232.56;7709969;32;38358;-73